Time;durP1;ratioP1;P1;durP2;ratioP2;P2;SDS_P1;SDS_P2;PMS_P1;PMS_P2;Temp;Humidity;BMP_temperature;BMP_pressure;BME280_temperature;BME280_humidity;BME280_pressure;Samples;Min_cycle;Max_cycle;Signal;HPM_P1;HPM_P2
2022/12/01 00:00:41;;;;;;;47.33;19.73;;;;;;;;;;4879812;29;20036;-81
2022/12/01 00:03:06;;;;;;;51.03;20.45;;;;;;;;;;4879932;29;20112;-82
2022/12/01 00:05:32;;;;;;;55.67;20.95;;;;;;;;;;4879902;29;20112;-82
2022/12/01 00:07:58;;;;;;;46.60;19.27;;;;;;;;;;4894139;29;20048;-81
2022/12/01 00:10:25;;;;;;;51.10;19.63;;;;;;;;;;4879856;29;20100;-81
2022/12/01 00:12:56;;;;;;;49.28;20.58;;;;;;;;;;4881333;29;20116;-82
2022/12/01 00:15:24;;;;;;;54.85;20.25;;;;;;;;;;4883401;29;20443;-83
2022/12/01 00:17:50;;;;;;;47.58;19.02;;;;;;;;;;4883320;29;20032;-82
2022/12/01 00:20:16;;;;;;;53.40;20.38;;;;;;;;;;4883009;29;20037;-83
2022/12/01 00:22:43;;;;;;;46.35;20.02;;;;;;;;;;4897258;29;20509;-83
2022/12/01 00:25:09;;;;;;;49.20;20.15;;;;;;;;;;4866077;29;20120;-82
2022/12/01 00:27:34;;;;;;;61.42;20.55;;;;;;;;;;4883377;29;20470;-82
2022/12/01 00:29:59;;;;;;;57.15;20.30;;;;;;;;;;4866197;29;20045;-83
2022/12/01 00:32:25;;;;;;;56.72;20.75;;;;;;;;;;4897146;29;20041;-83
2022/12/01 00:34:50;;;;;;;52.30;20.10;;;;;;;;;;4882880;29;20048;-83
2022/12/01 00:37:16;;;;;;;53.85;20.00;;;;;;;;;;4882742;29;20025;-83
2022/12/01 00:39:41;;;;;;;53.88;20.13;;;;;;;;;;4897263;29;20169;-82
2022/12/01 00:42:07;;;;;;;49.92;19.67;;;;;;;;;;4882729;29;20402;-82
2022/12/01 00:44:32;;;;;;;47.88;20.25;;;;;;;;;;4883164;29;20049;-83
2022/12/01 00:46:58;;;;;;;52.42;20.23;;;;;;;;;;4882860;29;20589;-82
2022/12/01 00:49:23;;;;;;;63.67;21.17;;;;;;;;;;4882596;29;20471;-83
2022/12/01 00:51:49;;;;;;;49.85;19.25;;;;;;;;;;4882732;29;20045;-83
2022/12/01 00:54:14;;;;;;;57.63;20.73;;;;;;;;;;4882715;29;20036;-83
2022/12/01 00:56:40;;;;;;;51.50;19.65;;;;;;;;;;4882755;29;20044;-83
2022/12/01 00:59:05;;;;;;;55.15;19.17;;;;;;;;;;4896588;29;20132;-83
2022/12/01 01:01:32;;;;;;;53.00;20.88;;;;;;;;;;4896886;29;20070;-83
2022/12/01 01:03:57;;;;;;;53.08;21.38;;;;;;;;;;4880887;29;20033;-81
2022/12/01 01:06:23;;;;;;;51.88;20.20;;;;;;;;;;4882278;29;20093;-82
2022/12/01 01:08:48;;;;;;;52.00;20.45;;;;;;;;;;4882359;29;20036;-83
2022/12/01 01:11:14;;;;;;;50.53;19.65;;;;;;;;;;4882266;29;20049;-82
2022/12/01 01:13:39;;;;;;;53.13;20.38;;;;;;;;;;4882107;29;20124;-83
2022/12/01 01:16:17;;;;;;;47.17;20.23;;;;;;;;;;4865439;29;20033;-82
2022/12/01 01:18:43;;;;;;;52.70;19.73;;;;;;;;;;4896403;29;20402;-82
2022/12/01 01:21:12;;;;;;;50.00;19.15;;;;;;;;;;4882178;29;20497;-82
2022/12/01 01:23:38;;;;;;;42.28;18.40;;;;;;;;;;4880780;29;20399;-82
2022/12/01 01:26:05;;;;;;;46.40;18.83;;;;;;;;;;4882059;29;20049;-82
2022/12/01 01:28:31;;;;;;;44.60;18.42;;;;;;;;;;4882062;29;20105;-82
2022/12/01 01:30:57;;;;;;;46.55;19.45;;;;;;;;;;4881993;29;20043;-83
2022/12/01 01:33:23;;;;;;;48.28;19.17;;;;;;;;;;4882085;29;20085;-82
2022/12/01 01:35:48;;;;;;;47.90;19.90;;;;;;;;;;4881684;29;20085;-82
2022/12/01 01:38:14;;;;;;;46.42;18.35;;;;;;;;;;4881875;29;20041;-82
2022/12/01 01:40:44;;;;;;;43.42;17.45;;;;;;;;;;4864978;29;20044;-82
2022/12/01 01:43:36;;;;;;;49.28;19.50;;;;;;;;;;4896283;29;20051;-82
2022/12/01 01:46:02;;;;;;;46.78;17.95;;;;;;;;;;4881675;29;20495;-82
2022/12/01 01:48:27;;;;;;;45.50;19.23;;;;;;;;;;4882250;29;20072;-82
2022/12/01 01:50:53;;;;;;;41.65;18.95;;;;;;;;;;4881960;29;20060;-82
2022/12/01 01:53:19;;;;;;;45.85;19.30;;;;;;;;;;4865069;29;20414;-82
2022/12/01 01:55:45;;;;;;;43.80;18.83;;;;;;;;;;4881511;29;20060;-82
2022/12/01 01:58:10;;;;;;;42.17;18.35;;;;;;;;;;4881555;29;20056;-82
2022/12/01 02:00:39;;;;;;;44.42;17.90;;;;;;;;;;4881861;29;20065;-82
2022/12/01 02:03:04;;;;;;;43.38;18.85;;;;;;;;;;4881843;29;20406;-83
2022/12/01 02:05:33;;;;;;;42.50;17.83;;;;;;;;;;4881373;29;20562;-83
2022/12/01 02:08:01;;;;;;;43.08;18.30;;;;;;;;;;4881676;29;20123;-83
2022/12/01 02:10:38;;;;;;;42.97;17.33;;;;;;;;;;4881531;29;20064;-82
2022/12/01 02:13:40;;;;;;;46.22;19.00;;;;;;;;;;4881166;29;20045;-82
2022/12/01 02:16:47;;;;;;;45.70;17.88;;;;;;;;;;4880956;29;20041;-82
2022/12/01 02:19:43;;;;;;;47.63;17.80;;;;;;;;;;4880626;29;20080;-82
2022/12/01 02:22:18;;;;;;;46.58;18.85;;;;;;;;;;4881342;29;20047;-82
2022/12/01 02:25:04;;;;;;;44.05;18.27;;;;;;;;;;4881316;29;20048;-81
2022/12/01 02:28:08;;;;;;;46.97;18.05;;;;;;;;;;4881122;29;20076;-82
2022/12/01 02:31:06;;;;;;;40.47;17.33;;;;;;;;;;4881081;29;20072;-82
2022/12/01 02:33:40;;;;;;;47.05;17.17;;;;;;;;;;4864172;29;20037;-82
2022/12/01 02:36:19;;;;;;;41.63;17.38;;;;;;;;;;4880450;29;20061;-82
2022/12/01 02:38:53;;;;;;;37.53;17.05;;;;;;;;;;4881173;29;20048;-81
2022/12/01 02:41:41;;;;;;;44.60;18.42;;;;;;;;;;4895067;29;20036;-82
2022/12/01 02:44:19;;;;;;;42.08;17.83;;;;;;;;;;4880771;29;20037;-82
2022/12/01 02:46:54;;;;;;;39.63;17.85;;;;;;;;;;4864178;29;20111;-82
2022/12/01 02:49:24;;;;;;;44.40;18.77;;;;;;;;;;4880795;29;20108;-83
2022/12/01 02:51:53;;;;;;;47.83;19.45;;;;;;;;;;4879355;29;20033;-82
2022/12/01 02:54:19;;;;;;;41.78;17.55;;;;;;;;;;4880760;29;20064;-82
2022/12/01 02:56:44;;;;;;;45.65;19.23;;;;;;;;;;4880553;29;20052;-81
2022/12/01 02:59:11;;;;;;;43.35;18.00;;;;;;;;;;4880597;29;20037;-81
2022/12/01 03:02:08;;;;;;;43.40;19.30;;;;;;;;;;4880538;29;20037;-82
2022/12/01 03:04:55;;;;;;;44.60;17.85;;;;;;;;;;4880432;29;20051;-82
2022/12/01 03:07:26;;;;;;;45.78;17.45;;;;;;;;;;4894855;29;20053;-82
2022/12/01 03:09:55;;;;;;;40.67;17.85;;;;;;;;;;4880584;29;20440;-82
2022/12/01 03:12:28;;;;;;;46.75;18.77;;;;;;;;;;4863297;29;20051;-82
2022/12/01 03:15:26;;;;;;;48.35;18.95;;;;;;;;;;4894237;29;20044;-82
2022/12/01 03:17:55;;;;;;;49.05;17.98;;;;;;;;;;4880393;29;20040;-82
2022/12/01 03:20:31;;;;;;;42.97;18.17;;;;;;;;;;4880094;29;20033;-82
2022/12/01 03:23:25;;;;;;;45.45;18.30;;;;;;;;;;4880384;29;20040;-83
2022/12/01 03:25:54;;;;;;;45.70;18.80;;;;;;;;;;4877879;29;20081;-82
2022/12/01 03:28:27;;;;;;;49.05;18.40;;;;;;;;;;4880036;29;20112;-82
2022/12/01 03:30:55;;;;;;;43.67;19.30;;;;;;;;;;4880568;29;20041;-82
2022/12/01 03:33:27;;;;;;;46.00;18.33;;;;;;;;;;4893933;29;20049;-82
2022/12/01 03:35:59;;;;;;;43.83;18.88;;;;;;;;;;4879702;29;20056;-83
2022/12/01 03:38:26;;;;;;;48.20;18.95;;;;;;;;;;4880239;29;20522;-83
2022/12/01 03:40:57;;;;;;;42.15;18.35;;;;;;;;;;4879864;29;20097;-83
2022/12/01 03:43:27;;;;;;;40.35;17.88;;;;;;;;;;4880244;29;20045;-83
2022/12/01 03:46:07;;;;;;;47.05;18.58;;;;;;;;;;4863259;29;20037;-83
2022/12/01 03:48:33;;;;;;;38.97;17.90;;;;;;;;;;4883451;29;20033;-82
2022/12/01 03:51:17;;;;;;;44.45;18.25;;;;;;;;;;4884104;29;20104;-82
2022/12/01 03:53:53;;;;;;;45.40;18.60;;;;;;;;;;4883740;29;20044;-82
2022/12/01 03:56:23;;;;;;;44.83;17.73;;;;;;;;;;4883752;29;20029;-82
2022/12/01 03:58:53;;;;;;;41.03;17.98;;;;;;;;;;4883803;29;20079;-82
2022/12/01 04:01:21;;;;;;;43.53;18.50;;;;;;;;;;4883628;29;20096;-82
2022/12/01 04:03:47;;;;;;;43.00;18.45;;;;;;;;;;4883525;29;20088;-82
2022/12/01 04:06:13;;;;;;;40.05;17.65;;;;;;;;;;4883402;29;20503;-82
2022/12/01 04:08:38;;;;;;;47.65;19.10;;;;;;;;;;4866695;29;20041;-82
2022/12/01 04:12:28;;;;;;;44.10;18.92;;;;;;;;;;4883637;29;20041;-82
2022/12/01 04:13:50;;;;;;;37.50;17.33;;;;;;;;;;4883099;29;20057;-82
2022/12/01 04:16:15;;;;;;;40.10;17.70;;;;;;;;;;4883153;29;20048;-82
2022/12/01 04:18:41;;;;;;;42.92;17.17;;;;;;;;;;4883729;29;20041;-83
2022/12/01 04:21:07;;;;;;;46.80;19.30;;;;;;;;;;4866936;29;20036;-82
2022/12/01 04:26:16;;;;;;;37.60;17.20;;;;;;;;;;4883536;29;20529;-82
2022/12/01 04:28:42;;;;;;;44.85;18.67;;;;;;;;;;4897851;29;20037;-82
2022/12/01 04:31:07;;;;;;;43.35;18.38;;;;;;;;;;4883251;29;20037;-83
2022/12/01 04:33:32;;;;;;;42.40;18.38;;;;;;;;;;4883172;29;20447;-82
2022/12/01 04:35:59;;;;;;;42.00;18.75;;;;;;;;;;4883590;29;20117;-82
2022/12/01 04:38:25;;;;;;;42.25;19.05;;;;;;;;;;4883644;29;20056;-82
2022/12/01 04:40:50;;;;;;;42.50;18.63;;;;;;;;;;4883632;29;20045;-82
2022/12/01 04:43:16;;;;;;;42.17;18.88;;;;;;;;;;4883253;29;20124;-82
2022/12/01 04:45:41;;;;;;;36.00;16.75;;;;;;;;;;4897861;29;20124;-82
2022/12/01 04:48:07;;;;;;;41.40;18.98;;;;;;;;;;4883097;29;20041;-81
2022/12/01 04:50:32;;;;;;;42.72;18.60;;;;;;;;;;4900476;29;20120;-83
2022/12/01 04:52:58;;;;;;;42.78;18.65;;;;;;;;;;4901231;29;20040;-83
2022/12/01 04:55:24;;;;;;;38.83;17.67;;;;;;;;;;4901457;29;20401;-82
2022/12/01 04:57:50;;;;;;;36.65;16.48;;;;;;;;;;4901664;29;20036;-82
2022/12/01 05:00:17;;;;;;;40.35;18.10;;;;;;;;;;4900493;29;20463;-82
2022/12/01 05:02:43;;;;;;;38.97;17.15;;;;;;;;;;4884205;29;20068;-82
2022/12/01 05:05:12;;;;;;;41.17;18.05;;;;;;;;;;4884168;29;20036;-83
2022/12/01 05:07:38;;;;;;;40.08;17.85;;;;;;;;;;4883735;29;20104;-82
2022/12/01 05:10:05;;;;;;;37.65;17.98;;;;;;;;;;4884280;29;20449;-82
2022/12/01 05:12:30;;;;;;;38.25;17.52;;;;;;;;;;4900761;29;20068;-82
2022/12/01 05:14:56;;;;;;;39.70;17.63;;;;;;;;;;4900205;29;20083;-82
2022/12/01 05:17:21;;;;;;;38.45;17.50;;;;;;;;;;4901276;29;20036;-82
2022/12/01 05:22:31;;;;;;;42.38;17.15;;;;;;;;;;4900736;29;20376;-83
2022/12/01 05:24:56;;;;;;;41.83;17.63;;;;;;;;;;4900191;29;20516;-83
2022/12/01 05:27:22;;;;;;;38.00;17.23;;;;;;;;;;4899720;29;20032;-83
2022/12/01 05:29:47;;;;;;;35.72;17.02;;;;;;;;;;4900212;29;20047;-83
2022/12/01 05:32:13;;;;;;;34.85;16.92;;;;;;;;;;4883278;29;20036;-82
2022/12/01 05:34:38;;;;;;;37.55;16.83;;;;;;;;;;4899805;29;20036;-83
2022/12/01 05:37:04;;;;;;;39.67;17.92;;;;;;;;;;4883055;29;20578;-83
2022/12/01 05:39:30;;;;;;;38.03;16.48;;;;;;;;;;4899927;29;20048;-82
2022/12/01 05:41:55;;;;;;;39.75;17.90;;;;;;;;;;4899739;29;20037;-82
2022/12/01 05:44:20;;;;;;;41.92;17.45;;;;;;;;;;4883404;29;20060;-82
2022/12/01 05:46:46;;;;;;;38.72;16.38;;;;;;;;;;4900412;29;20378;-82
2022/12/01 05:49:11;;;;;;;38.70;17.35;;;;;;;;;;4900072;29;20033;-81
2022/12/01 05:51:37;;;;;;;38.65;16.73;;;;;;;;;;4899853;29;20040;-82
2022/12/01 05:54:02;;;;;;;39.50;17.52;;;;;;;;;;4899360;29;20060;-82
2022/12/01 05:56:28;;;;;;;41.88;18.08;;;;;;;;;;4883136;29;20562;-82
2022/12/01 05:58:53;;;;;;;41.40;17.20;;;;;;;;;;4899976;29;20039;-82
2022/12/01 06:01:19;;;;;;;39.42;17.10;;;;;;;;;;4899296;29;20063;-82
2022/12/01 06:03:44;;;;;;;37.03;16.77;;;;;;;;;;4899420;29;20082;-82
2022/12/01 06:06:10;;;;;;;42.00;16.88;;;;;;;;;;4899386;29;20068;-82
2022/12/01 06:08:35;;;;;;;36.78;17.38;;;;;;;;;;4900104;29;20036;-82
2022/12/01 06:11:01;;;;;;;36.58;16.30;;;;;;;;;;4899299;29;20092;-82
2022/12/01 06:13:26;;;;;;;41.60;17.23;;;;;;;;;;4930884;23;20060;-86
2022/12/01 06:16:05;;;;;;;38.50;16.80;;;;;;;;;;4908015;29;20036;-87
2022/12/01 06:18:35;;;;;;;42.60;17.90;;;;;;;;;;4917718;29;20036;-86
2022/12/01 06:21:05;;;;;;;38.08;17.30;;;;;;;;;;4917469;29;20068;-88
2022/12/01 06:23:34;;;;;;;39.63;17.30;;;;;;;;;;4917416;29;20501;-87
2022/12/01 06:26:03;;;;;;;39.20;16.85;;;;;;;;;;4899994;29;20036;-86
2022/12/01 06:28:34;;;;;;;44.15;18.05;;;;;;;;;;4910978;29;20036;-87
2022/12/01 06:31:10;;;;;;;39.67;16.55;;;;;;;;;;4917953;29;20549;-87
2022/12/01 06:33:35;;;;;;;41.55;17.67;;;;;;;;;;4910450;29;20032;-87
2022/12/01 06:36:07;;;;;;;40.25;17.98;;;;;;;;;;4910676;29;20039;-88
2022/12/01 06:38:37;;;;;;;41.17;17.92;;;;;;;;;;4900776;29;20095;-88
2022/12/01 06:41:17;;;;;;;43.10;18.33;;;;;;;;;;4900651;29;20028;-87
2022/12/01 06:44:02;;;;;;;44.55;18.75;;;;;;;;;;4884781;29;20055;-87
2022/12/01 06:46:30;;;;;;;40.33;18.92;;;;;;;;;;4900470;29;20040;-85
2022/12/01 06:49:10;;;;;;;44.25;18.40;;;;;;;;;;4901021;29;20494;-88
2022/12/01 06:51:48;;;;;;;52.33;19.45;;;;;;;;;;4917650;29;20099;-87
2022/12/01 06:54:23;;;;;;;46.80;19.30;;;;;;;;;;4916486;29;20480;-88
2022/12/01 06:56:54;;;;;;;46.90;19.70;;;;;;;;;;4910485;29;20481;-88
2022/12/01 06:59:24;;;;;;;48.28;19.25;;;;;;;;;;4918768;29;20052;-88
2022/12/01 07:01:53;;;;;;;45.35;19.50;;;;;;;;;;4900848;29;20040;-87
2022/12/01 07:04:31;;;;;;;43.22;18.58;;;;;;;;;;4910601;29;20035;-86
2022/12/01 07:06:56;;;;;;;44.28;18.38;;;;;;;;;;4915743;29;20055;-86
2022/12/01 07:09:22;;;;;;;49.45;20.30;;;;;;;;;;4916958;29;20051;-85
2022/12/01 07:12:00;;;;;;;;;;;;;;;;;;;;;
2022/12/01 07:14:27;;;;;;;45.70;18.67;;;;;;;;;;4916271;29;20043;-85
2022/12/01 07:16:53;;;;;;;41.47;17.42;;;;;;;;;;4920938;29;20048;-87
2022/12/01 07:19:21;;;;;;;43.92;17.40;;;;;;;;;;4917059;29;20052;-86
2022/12/01 07:21:46;;;;;;;39.92;17.65;;;;;;;;;;4916481;29;20477;-86
2022/12/01 07:24:15;;;;;;;40.47;17.30;;;;;;;;;;4891291;29;20060;-86
2022/12/01 07:26:43;;;;;;;47.60;19.20;;;;;;;;;;4897681;29;20123;-87
2022/12/01 07:29:09;;;;;;;41.35;17.98;;;;;;;;;;4899095;29;20475;-85
2022/12/01 07:31:38;;;;;;;41.38;17.85;;;;;;;;;;4897924;29;20084;-85
2022/12/01 07:34:05;;;;;;;46.45;18.83;;;;;;;;;;4897571;29;20079;-86
2022/12/01 07:36:48;;;;;;;43.15;17.40;;;;;;;;;;4897473;29;20079;-87
2022/12/01 07:39:16;;;;;;;43.50;17.95;;;;;;;;;;4897366;29;20041;-86
2022/12/01 07:41:42;;;;;;;45.13;18.15;;;;;;;;;;4889868;29;20045;-87
2022/12/01 07:44:10;;;;;;;38.00;16.85;;;;;;;;;;4899870;29;20095;-85
2022/12/01 07:46:36;;;;;;;44.00;18.50;;;;;;;;;;4899594;29;20483;-86
2022/12/01 07:49:05;;;;;;;47.60;18.42;;;;;;;;;;4882031;29;20062;-85
2022/12/01 07:51:31;;;;;;;43.05;18.17;;;;;;;;;;4881425;29;20124;-84
2022/12/01 07:54:02;;;;;;;45.28;17.77;;;;;;;;;;4911772;29;20056;-85
2022/12/01 07:56:28;;;;;;;43.42;19.08;;;;;;;;;;4900551;29;20109;-86
2022/12/01 07:58:53;;;;;;;53.40;19.80;;;;;;;;;;4900628;29;20043;-88
2022/12/01 08:01:26;;;;;;;48.42;18.90;;;;;;;;;;4918756;29;20044;-87
2022/12/01 08:03:54;;;;;;;46.00;18.40;;;;;;;;;;4917740;29;20056;-86
2022/12/01 08:06:21;;;;;;;44.40;17.80;;;;;;;;;;4917955;29;20701;-84
2022/12/01 08:08:47;;;;;;;46.38;19.02;;;;;;;;;;4886681;29;20048;-85
2022/12/01 08:11:19;;;;;;;43.20;18.23;;;;;;;;;;4917713;29;20086;-84
2022/12/01 08:13:44;;;;;;;37.63;16.52;;;;;;;;;;4917539;29;20040;-84
2022/12/01 08:16:13;;;;;;;45.65;18.58;;;;;;;;;;4917724;29;20056;-86
2022/12/01 08:18:39;;;;;;;40.03;16.67;;;;;;;;;;4886292;29;20036;-86
2022/12/01 08:21:06;;;;;;;37.08;16.65;;;;;;;;;;4885830;29;20048;-86
2022/12/01 08:23:32;;;;;;;41.97;17.30;;;;;;;;;;4917812;29;20048;-86
2022/12/01 08:26:01;;;;;;;38.25;16.58;;;;;;;;;;4917604;29;20044;-87
2022/12/01 08:28:27;;;;;;;40.88;17.25;;;;;;;;;;4916570;29;20047;-85
2022/12/01 08:30:53;;;;;;;36.95;15.77;;;;;;;;;;4917086;29;20130;-85
2022/12/01 08:33:18;;;;;;;40.38;17.90;;;;;;;;;;4917529;29;20040;-87
2022/12/01 08:35:44;;;;;;;37.83;16.02;;;;;;;;;;4920080;29;20458;-86
2022/12/01 08:38:09;;;;;;;42.13;16.60;;;;;;;;;;4920318;29;20088;-86
2022/12/01 08:40:35;;;;;;;38.92;16.83;;;;;;;;;;4919958;29;20051;-84
2022/12/01 08:43:01;;;;;;;31.38;15.13;;;;;;;;;;4903515;29;20051;-85
2022/12/01 08:45:26;;;;;;;33.30;15.63;;;;;;;;;;4927260;29;20048;-85
2022/12/01 08:47:57;;;;;;;37.40;16.42;;;;;;;;;;4925837;29;20055;-87
2022/12/01 08:50:24;;;;;;;38.60;16.67;;;;;;;;;;4923908;29;20502;-85
2022/12/01 08:52:49;;;;;;;38.63;16.15;;;;;;;;;;4909566;29;20036;-88
2022/12/01 08:55:15;;;;;;;39.42;17.17;;;;;;;;;;4925089;29;20040;-86
2022/12/01 08:57:40;;;;;;;38.03;17.30;;;;;;;;;;4924902;29;20096;-85
2022/12/01 09:00:06;;;;;;;40.22;18.05;;;;;;;;;;4906840;29;20412;-85
2022/12/01 09:02:32;;;;;;;41.47;18.33;;;;;;;;;;4922902;29;20047;-86
2022/12/01 09:05:00;;;;;;;41.60;17.55;;;;;;;;;;4922592;29;20100;-87
2022/12/01 09:07:25;;;;;;;40.05;17.83;;;;;;;;;;4922963;29;20068;-86
2022/12/01 09:09:51;;;;;;;45.05;18.52;;;;;;;;;;4905631;29;20135;-87
2022/12/01 09:12:16;;;;;;;40.53;18.45;;;;;;;;;;4922362;29;20067;-87
2022/12/01 09:14:48;;;;;;;40.35;17.55;;;;;;;;;;4921066;29;20118;-88
2022/12/01 09:17:15;;;;;;;38.85;16.73;;;;;;;;;;4899432;29;20029;-86
2022/12/01 09:19:41;;;;;;;46.47;17.98;;;;;;;;;;4902068;29;20127;-85
2022/12/01 09:22:07;;;;;;;40.70;17.40;;;;;;;;;;4906420;29;20088;-85
2022/12/01 09:24:32;;;;;;;40.30;16.98;;;;;;;;;;4902973;29;20063;-85
2022/12/01 09:26:58;;;;;;;40.63;17.65;;;;;;;;;;4886013;29;20044;-86
2022/12/01 09:29:24;;;;;;;41.33;17.33;;;;;;;;;;4903116;29;20044;-86
2022/12/01 09:31:50;;;;;;;37.53;16.90;;;;;;;;;;4885292;29;20383;-88
2022/12/01 09:34:20;;;;;;;42.85;17.67;;;;;;;;;;4902981;29;20175;-88
2022/12/01 09:36:47;;;;;;;42.42;18.13;;;;;;;;;;4885596;29;20032;-86
2022/12/01 09:39:15;;;;;;;40.00;17.45;;;;;;;;;;4902157;29;20064;-84
2022/12/01 09:41:52;;;;;;;38.88;17.75;;;;;;;;;;4902215;29;20040;-86
2022/12/01 09:44:36;;;;;;;43.63;18.27;;;;;;;;;;4901973;29;20203;-83
2022/12/01 09:47:20;;;;;;;39.38;17.10;;;;;;;;;;4900229;29;20033;-84
2022/12/01 09:49:48;;;;;;;41.47;17.00;;;;;;;;;;4900062;29;20509;-84
2022/12/01 09:52:17;;;;;;;44.67;17.85;;;;;;;;;;4899742;29;20111;-86
2022/12/01 09:54:43;;;;;;;42.53;17.48;;;;;;;;;;4899564;29;20111;-84
2022/12/01 09:57:36;;;;;;;41.03;17.67;;;;;;;;;;4899641;29;20033;-85
2022/12/01 10:00:07;;;;;;;44.70;18.23;;;;;;;;;;4879410;29;20055;-86
2022/12/01 10:02:49;;;;;;;42.60;17.80;;;;;;;;;;4898648;29;20398;-85
2022/12/01 10:05:18;;;;;;;43.08;17.45;;;;;;;;;;4890873;29;20033;-87
2022/12/01 10:07:53;;;;;;;41.58;17.23;;;;;;;;;;4899433;29;20120;-87
2022/12/01 10:10:36;;;;;;;39.83;17.08;;;;;;;;;;4899604;29;20050;-86
2022/12/01 10:13:07;;;;;;;40.38;17.13;;;;;;;;;;4899125;29;20036;-86
2022/12/01 10:15:50;;;;;;;41.35;17.25;;;;;;;;;;4882396;29;20234;-86
2022/12/01 10:18:43;;;;;;;38.45;16.45;;;;;;;;;;4882698;29;20032;-87
2022/12/01 10:21:26;;;;;;;39.90;16.40;;;;;;;;;;4882468;29;20037;-85
2022/12/01 10:24:04;;;;;;;40.47;17.27;;;;;;;;;;4899548;29;20033;-85
2022/12/01 10:26:37;;;;;;;42.60;17.70;;;;;;;;;;4901361;29;20394;-86
2022/12/01 10:29:22;;;;;;;44.63;18.60;;;;;;;;;;4883138;29;20032;-86
2022/12/01 10:31:52;;;;;;;44.20;18.25;;;;;;;;;;4899567;29;20036;-86
2022/12/01 10:34:41;;;;;;;39.20;17.48;;;;;;;;;;4899222;29;20398;-86
2022/12/01 10:37:17;;;;;;;43.53;17.75;;;;;;;;;;4899753;29;20063;-86
2022/12/01 10:39:45;;;;;;;44.67;17.00;;;;;;;;;;4882858;29;20513;-87
2022/12/01 10:42:29;;;;;;;43.38;18.08;;;;;;;;;;4881474;29;20032;-86
2022/12/01 10:44:59;;;;;;;49.15;19.58;;;;;;;;;;4898137;29;20032;-86
2022/12/01 10:47:26;;;;;;;45.35;19.67;;;;;;;;;;4898538;29;20095;-87
2022/12/01 10:49:52;;;;;;;51.80;20.58;;;;;;;;;;4881878;29;20035;-86
2022/12/01 10:52:32;;;;;;;50.13;20.45;;;;;;;;;;4881291;29;20029;-87
2022/12/01 10:54:58;;;;;;;49.42;18.98;;;;;;;;;;4896850;29;20033;-87
2022/12/01 10:57:26;;;;;;;44.97;18.85;;;;;;;;;;4897438;29;20032;-84
2022/12/01 10:59:59;;;;;;;55.70;20.15;;;;;;;;;;4882468;29;20033;-85
2022/12/01 11:02:27;;;;;;;52.10;20.30;;;;;;;;;;4881733;29;20033;-86
2022/12/01 11:04:54;;;;;;;48.85;19.67;;;;;;;;;;4881706;29;20036;-87
2022/12/01 11:07:22;;;;;;;53.90;21.23;;;;;;;;;;4898605;29;20020;-86
2022/12/01 11:10:13;;;;;;;49.70;19.48;;;;;;;;;;4898919;29;20054;-84
2022/12/01 11:12:40;;;;;;;45.95;17.45;;;;;;;;;;4898134;29;20044;-86
2022/12/01 11:15:06;;;;;;;53.17;19.20;;;;;;;;;;4897056;29;20044;-86
2022/12/01 11:17:37;;;;;;;47.75;18.45;;;;;;;;;;4906395;29;20028;-85
2022/12/01 11:20:38;;;;;;;49.83;18.42;;;;;;;;;;4897761;29;20577;-86
2022/12/01 11:23:23;;;;;;;43.38;17.10;;;;;;;;;;4898656;29;20032;-87
2022/12/01 11:26:02;;;;;;;42.38;17.88;;;;;;;;;;4898841;29;20037;-86
2022/12/01 11:28:28;;;;;;;42.90;17.60;;;;;;;;;;4900150;29;20032;-89
2022/12/01 11:31:01;;;;;;;43.20;17.35;;;;;;;;;;4897769;29;20048;-90
2022/12/01 11:33:28;;;;;;;46.40;18.30;;;;;;;;;;4881176;29;20044;-89
2022/12/01 11:35:54;;;;;;;47.42;18.20;;;;;;;;;;4898527;29;20123;-88
2022/12/01 11:38:22;;;;;;;47.20;17.70;;;;;;;;;;4896492;29;20409;-87
2022/12/01 11:40:54;;;;;;;43.40;18.65;;;;;;;;;;4896871;29;20048;-86
2022/12/01 11:43:28;;;;;;;42.33;16.73;;;;;;;;;;4881025;29;20175;-86
2022/12/01 11:45:55;;;;;;;41.53;17.02;;;;;;;;;;4897674;29;20048;-86
2022/12/01 11:48:24;;;;;;;44.03;17.55;;;;;;;;;;4897439;29;20131;-86
2022/12/01 11:51:05;;;;;;;42.17;16.80;;;;;;;;;;4880512;29;20482;-86
2022/12/01 11:53:34;;;;;;;40.78;16.33;;;;;;;;;;4880452;29;20037;-85
2022/12/01 11:56:19;;;;;;;40.60;17.10;;;;;;;;;;4880869;29;20107;-85
2022/12/01 11:58:48;;;;;;;40.15;15.95;;;;;;;;;;4880579;29;20169;-86
2022/12/01 12:02:01;;;;;;;42.17;17.25;;;;;;;;;;4897328;29;20072;-85
2022/12/01 12:04:45;;;;;;;37.78;15.43;;;;;;;;;;4839098;29;20042;-86
2022/12/01 12:07:13;;;;;;;40.92;16.92;;;;;;;;;;4880700;29;20140;-86
2022/12/01 12:09:54;;;;;;;42.90;16.73;;;;;;;;;;4882588;29;20119;-87
2022/12/01 12:15:51;;;;;;;37.78;15.57;;;;;;;;;;4899597;29;20498;-83
2022/12/01 12:18:34;;;;;;;39.30;15.50;;;;;;;;;;4902521;29;20032;-82
2022/12/01 12:21:06;;;;;;;41.05;15.75;;;;;;;;;;4885118;29;20099;-81
2022/12/01 12:24:00;;;;;;;34.75;14.85;;;;;;;;;;4908954;29;20044;-83
2022/12/01 12:26:27;;;;;;;37.45;15.52;;;;;;;;;;4920089;29;20036;-81
2022/12/01 12:29:10;;;;;;;40.05;16.50;;;;;;;;;;4920630;29;20055;-81
2022/12/01 12:32:00;;;;;;;38.47;15.73;;;;;;;;;;4920604;29;20406;-82
2022/12/01 12:34:26;;;;;;;36.50;16.17;;;;;;;;;;4902981;29;20272;-81
2022/12/01 12:37:06;;;;;;;44.67;15.30;;;;;;;;;;4920876;29;20513;-82
2022/12/01 12:40:00;;;;;;;45.08;15.77;;;;;;;;;;4904247;29;20040;-83
2022/12/01 12:42:25;;;;;;;39.17;16.45;;;;;;;;;;4920613;29;20092;-82
2022/12/01 12:45:01;;;;;;;40.65;16.40;;;;;;;;;;4920476;29;20040;-82
2022/12/01 12:47:26;;;;;;;39.45;16.30;;;;;;;;;;4902938;29;20516;-81
2022/12/01 12:50:07;;;;;;;38.63;16.25;;;;;;;;;;4903699;29;20615;-82
2022/12/01 12:52:39;;;;;;;37.92;16.20;;;;;;;;;;4887597;29;20090;-81
2022/12/01 12:55:32;;;;;;;40.20;16.23;;;;;;;;;;4903125;29;20577;-82
2022/12/01 12:58:04;;;;;;;38.80;15.35;;;;;;;;;;4919937;29;20090;-81
2022/12/01 13:00:29;;;;;;;40.90;15.77;;;;;;;;;;4920642;29;20032;-81
2022/12/01 13:02:57;;;;;;;38.88;16.85;;;;;;;;;;4920059;29;20047;-81
2022/12/01 13:05:42;;;;;;;38.35;16.40;;;;;;;;;;4902976;29;20512;-83
2022/12/01 13:08:23;;;;;;;40.08;16.23;;;;;;;;;;4919797;29;20044;-82
2022/12/01 13:11:00;;;;;;;35.95;15.13;;;;;;;;;;4919867;29;20039;-82
2022/12/01 13:13:29;;;;;;;39.67;16.08;;;;;;;;;;4920187;29;20127;-82
2022/12/01 13:15:57;;;;;;;34.83;15.50;;;;;;;;;;4904162;29;20058;-83
2022/12/01 13:18:35;;;;;;;40.83;15.93;;;;;;;;;;4921724;29;20040;-83
2022/12/01 13:21:02;;;;;;;40.28;16.73;;;;;;;;;;4903470;29;20036;-83
2022/12/01 13:23:28;;;;;;;45.33;20.10;;;;;;;;;;4920570;29;20046;-82
2022/12/01 13:25:57;;;;;;;53.33;23.40;;;;;;;;;;4921297;29;20068;-83
2022/12/01 13:28:35;;;;;;;42.53;18.75;;;;;;;;;;4920981;29;20178;-83
2022/12/01 13:31:04;;;;;;;110.47;50.83;;;;;;;;;;4888309;29;20131;-82
2022/12/01 13:33:31;;;;;;;69.75;32.75;;;;;;;;;;4921292;29;20100;-82
2022/12/01 13:35:57;;;;;;;44.53;18.30;;;;;;;;;;4903274;29;20067;-82
2022/12/01 13:38:33;;;;;;;94.65;46.78;;;;;;;;;;4902346;29;20039;-82
2022/12/01 13:41:17;;;;;;;47.90;18.70;;;;;;;;;;4919579;29;20092;-82
2022/12/01 13:44:16;;;;;;;41.35;17.13;;;;;;;;;;4919462;29;20028;-82
2022/12/01 13:46:41;;;;;;;43.45;17.38;;;;;;;;;;4919434;29;20051;-83
2022/12/01 13:49:37;;;;;;;42.15;16.85;;;;;;;;;;4919284;29;20032;-82
2022/12/01 13:52:21;;;;;;;43.30;17.13;;;;;;;;;;4920063;29;20059;-83
2022/12/01 13:55:08;;;;;;;41.92;16.75;;;;;;;;;;4920086;29;20040;-82
2022/12/01 13:57:47;;;;;;;39.75;17.08;;;;;;;;;;4902099;29;20470;-82
2022/12/01 14:00:31;;;;;;;44.03;17.52;;;;;;;;;;4918977;29;20056;-82
2022/12/01 14:03:15;;;;;;;43.80;18.17;;;;;;;;;;4919141;29;20481;-82
2022/12/01 14:05:40;;;;;;;41.65;17.23;;;;;;;;;;4918345;29;20406;-81
2022/12/01 14:08:25;;;;;;;43.92;18.33;;;;;;;;;;4919713;29;20036;-83
2022/12/01 14:11:00;;;;;;;44.38;17.73;;;;;;;;;;4919123;29;20036;-81
2022/12/01 14:13:27;;;;;;;52.35;18.52;;;;;;;;;;4919240;29;20134;-81
2022/12/01 14:15:56;;;;;;;39.28;17.08;;;;;;;;;;4919977;29;20064;-82
2022/12/01 14:18:32;;;;;;;47.42;18.38;;;;;;;;;;4919836;29;20051;-83
2022/12/01 14:20:58;;;;;;;47.22;20.70;;;;;;;;;;4901845;29;20046;-82
2022/12/01 14:23:29;;;;;;;44.97;18.42;;;;;;;;;;4919392;29;20047;-81
2022/12/01 14:26:21;;;;;;;42.38;17.52;;;;;;;;;;4918609;29;20107;-82
2022/12/01 14:29:02;;;;;;;46.20;18.02;;;;;;;;;;4918578;29;20051;-82
2022/12/01 14:31:33;;;;;;;43.72;17.65;;;;;;;;;;4917451;29;20039;-82
2022/12/01 14:34:08;;;;;;;40.75;16.92;;;;;;;;;;4901582;29;20032;-82
2022/12/01 14:36:47;;;;;;;45.92;18.70;;;;;;;;;;4919000;29;20047;-82
2022/12/01 14:39:30;;;;;;;51.10;20.70;;;;;;;;;;4918553;29;20036;-82
2022/12/01 14:42:01;;;;;;;46.65;17.73;;;;;;;;;;4901673;29;20122;-82
2022/12/01 14:44:51;;;;;;;57.75;23.63;;;;;;;;;;4901371;29;20044;-82
2022/12/01 14:47:34;;;;;;;44.55;17.02;;;;;;;;;;4918023;29;20107;-82
2022/12/01 14:50:06;;;;;;;50.17;17.90;;;;;;;;;;4918176;29;20036;-83
2022/12/01 14:52:37;;;;;;;47.15;18.42;;;;;;;;;;4918318;29;20040;-83